Terminal Aerodrome Forecast
Issued by NWS Greer, SC

Home | Current Version | Previous Version | Text Only | Print | Product List | Glossary On
Versions: 1 2 3 4 5 6 7 8 9 10 11 12 13 14 15 16 17 18 19 20 21 22 23 24 25 26 27 28 29 30 31 32 33 34 35 36 37 38 39 40 41 42 43 44 45 46
000
FTUS42 KGSP 180500
TAFAVL
TAF
KAVL 180540Z 1806/1906 00000KT P6SM SCT003 BKN007 BKN250
      TEMPO 1806/1808 BKN002 OVC007
     FM180800 30003KT 5SM BR SCT003 BKN120
      TEMPO 1808/1810 3SM BR BKN005 BKN250
     FM181000 33004KT 2SM BR OVC006
     FM181400 34003KT P6SM BKN060
     FM181800 00000KT P6SM SCT045=

USA.gov is the U.S. government's official web portal to all federal, state and local government web resources and services.